sensor_id;sensor_type;location;lat;lon;timestamp;P1;durP1;ratioP1;P2;durP2;ratioP2
37847;SDS011;23688;33.130;-117.188;2022-08-21T00:00:21;16.83;;;7.10;;
37847;SDS011;23688;33.130;-117.188;2022-08-21T00:02:53;16.08;;;7.55;;
37847;SDS011;23688;33.130;-117.188;2022-08-21T00:05:31;19.33;;;7.15;;
37847;SDS011;23688;33.130;-117.188;2022-08-21T00:07:59;16.77;;;7.13;;
37847;SDS011;23688;33.130;-117.188;2022-08-21T00:10:25;15.18;;;7.60;;
37847;SDS011;23688;33.130;-117.188;2022-08-21T00:12:52;20.60;;;7.43;;
37847;SDS011;23688;33.130;-117.188;2022-08-21T00:15:20;14.68;;;7.68;;
37847;SDS011;23688;33.130;-117.188;2022-08-21T00:17:52;14.15;;;6.95;;
37847;SDS011;23688;33.130;-117.188;2022-08-21T00:20:19;18.95;;;7.93;;
37847;SDS011;23688;33.130;-117.188;2022-08-21T00:22:47;12.40;;;7.40;;
37847;SDS011;23688;33.130;-117.188;2022-08-21T00:25:17;11.68;;;6.63;;
37847;SDS011;23688;33.130;-117.188;2022-08-21T00:27:44;14.07;;;6.78;;
37847;SDS011;23688;33.130;-117.188;2022-08-21T00:30:13;23.13;;;7.25;;
37847;SDS011;23688;33.130;-117.188;2022-08-21T00:32:41;19.08;;;6.95;;
37847;SDS011;23688;33.130;-117.188;2022-08-21T00:35:08;14.80;;;7.35;;
37847;SDS011;23688;33.130;-117.188;2022-08-21T00:37:38;16.40;;;7.13;;
37847;SDS011;23688;33.130;-117.188;2022-08-21T00:40:06;16.33;;;7.20;;
37847;SDS011;23688;33.130;-117.188;2022-08-21T00:42:36;19.90;;;6.90;;
37847;SDS011;23688;33.130;-117.188;2022-08-21T00:45:04;10.82;;;6.68;;
37847;SDS011;23688;33.130;-117.188;2022-08-21T00:49:58;16.58;;;7.10;;
37847;SDS011;23688;33.130;-117.188;2022-08-21T00:52:28;18.75;;;6.68;;
37847;SDS011;23688;33.130;-117.188;2022-08-21T00:54:57;16.23;;;6.72;;
37847;SDS011;23688;33.130;-117.188;2022-08-21T00:57:26;17.65;;;6.15;;
37847;SDS011;23688;33.130;-117.188;2022-08-21T00:59:57;19.48;;;7.32;;
37847;SDS011;23688;33.130;-117.188;2022-08-21T01:02:26;14.40;;;6.85;;
37847;SDS011;23688;33.130;-117.188;2022-08-21T01:04:53;20.60;;;7.72;;
37847;SDS011;23688;33.130;-117.188;2022-08-21T01:07:20;17.40;;;7.75;;
37847;SDS011;23688;33.130;-117.188;2022-08-21T01:09:46;21.45;;;7.63;;
37847;SDS011;23688;33.130;-117.188;2022-08-21T01:12:14;20.58;;;7.50;;
37847;SDS011;23688;33.130;-117.188;2022-08-21T01:14:41;13.75;;;7.60;;
37847;SDS011;23688;33.130;-117.188;2022-08-21T01:17:14;21.00;;;7.75;;
37847;SDS011;23688;33.130;-117.188;2022-08-21T01:19:42;18.70;;;7.47;;
37847;SDS011;23688;33.130;-117.188;2022-08-21T01:22:09;22.38;;;8.75;;
37847;SDS011;23688;33.130;-117.188;2022-08-21T01:24:35;21.10;;;7.28;;
37847;SDS011;23688;33.130;-117.188;2022-08-21T01:27:02;20.83;;;7.47;;
37847;SDS011;23688;33.130;-117.188;2022-08-21T01:32:10;15.57;;;7.63;;
37847;SDS011;23688;33.130;-117.188;2022-08-21T01:34:40;16.95;;;7.35;;
37847;SDS011;23688;33.130;-117.188;2022-08-21T01:37:08;19.55;;;8.32;;
37847;SDS011;23688;33.130;-117.188;2022-08-21T01:39:36;20.70;;;8.40;;
37847;SDS011;23688;33.130;-117.188;2022-08-21T01:42:03;19.75;;;8.85;;
37847;SDS011;23688;33.130;-117.188;2022-08-21T01:44:30;17.73;;;8.30;;
37847;SDS011;23688;33.130;-117.188;2022-08-21T01:46:57;17.00;;;8.63;;
37847;SDS011;23688;33.130;-117.188;2022-08-21T01:49:26;26.65;;;8.48;;
37847;SDS011;23688;33.130;-117.188;2022-08-21T01:51:53;23.20;;;8.52;;
37847;SDS011;23688;33.130;-117.188;2022-08-21T01:54:19;25.85;;;9.77;;
37847;SDS011;23688;33.130;-117.188;2022-08-21T01:56:47;24.05;;;9.05;;
37847;SDS011;23688;33.130;-117.188;2022-08-21T01:59:16;20.77;;;7.85;;
37847;SDS011;23688;33.130;-117.188;2022-08-21T02:01:43;27.48;;;9.50;;
37847;SDS011;23688;33.130;-117.188;2022-08-21T02:04:09;27.55;;;9.18;;
37847;SDS011;23688;33.130;-117.188;2022-08-21T02:06:36;20.60;;;9.15;;
37847;SDS011;23688;33.130;-117.188;2022-08-21T02:09:04;22.15;;;9.43;;
37847;SDS011;23688;33.130;-117.188;2022-08-21T02:11:32;23.55;;;9.05;;
37847;SDS011;23688;33.130;-117.188;2022-08-21T02:14:00;19.90;;;9.13;;
37847;SDS011;23688;33.130;-117.188;2022-08-21T02:16:26;33.05;;;8.90;;
37847;SDS011;23688;33.130;-117.188;2022-08-21T02:18:52;25.75;;;10.10;;
37847;SDS011;23688;33.130;-117.188;2022-08-21T02:21:19;19.73;;;9.80;;
37847;SDS011;23688;33.130;-117.188;2022-08-21T02:23:45;28.88;;;10.48;;
37847;SDS011;23688;33.130;-117.188;2022-08-21T02:26:12;26.50;;;9.30;;
37847;SDS011;23688;33.130;-117.188;2022-08-21T02:28:38;29.52;;;10.07;;
37847;SDS011;23688;33.130;-117.188;2022-08-21T02:31:05;20.23;;;9.98;;
37847;SDS011;23688;33.130;-117.188;2022-08-21T02:33:32;31.92;;;9.60;;
37847;SDS011;23688;33.130;-117.188;2022-08-21T02:35:59;24.75;;;10.30;;
37847;SDS011;23688;33.130;-117.188;2022-08-21T02:38:27;28.83;;;10.30;;
37847;SDS011;23688;33.130;-117.188;2022-08-21T02:40:56;23.92;;;9.27;;
37847;SDS011;23688;33.130;-117.188;2022-08-21T02:43:23;24.00;;;10.18;;
37847;SDS011;23688;33.130;-117.188;2022-08-21T02:45:52;21.75;;;9.73;;
37847;SDS011;23688;33.130;-117.188;2022-08-21T02:48:22;30.02;;;9.85;;
37847;SDS011;23688;33.130;-117.188;2022-08-21T02:50:53;29.50;;;10.35;;
37847;SDS011;23688;33.130;-117.188;2022-08-21T02:53:23;19.48;;;9.40;;
37847;SDS011;23688;33.130;-117.188;2022-08-21T02:55:50;31.87;;;10.77;;
37847;SDS011;23688;33.130;-117.188;2022-08-21T02:58:22;27.10;;;9.82;;
37847;SDS011;23688;33.130;-117.188;2022-08-21T03:00:57;24.88;;;10.45;;
37847;SDS011;23688;33.130;-117.188;2022-08-21T03:03:24;24.85;;;9.75;;
37847;SDS011;23688;33.130;-117.188;2022-08-21T03:05:52;23.23;;;10.10;;
37847;SDS011;23688;33.130;-117.188;2022-08-21T03:08:19;22.77;;;8.85;;
37847;SDS011;23688;33.130;-117.188;2022-08-21T03:10:47;25.23;;;9.88;;
37847;SDS011;23688;33.130;-117.188;2022-08-21T03:13:16;24.63;;;10.48;;
37847;SDS011;23688;33.130;-117.188;2022-08-21T03:15:43;28.05;;;10.90;;
37847;SDS011;23688;33.130;-117.188;2022-08-21T03:18:11;21.73;;;8.85;;
37847;SDS011;23688;33.130;-117.188;2022-08-21T03:20:38;23.60;;;10.63;;
37847;SDS011;23688;33.130;-117.188;2022-08-21T03:23:06;23.77;;;10.50;;
37847;SDS011;23688;33.130;-117.188;2022-08-21T03:25:34;28.08;;;10.25;;
37847;SDS011;23688;33.130;-117.188;2022-08-21T03:28:02;27.60;;;10.55;;
37847;SDS011;23688;33.130;-117.188;2022-08-21T03:30:31;27.65;;;11.18;;
37847;SDS011;23688;33.130;-117.188;2022-08-21T03:32:59;21.58;;;10.10;;
37847;SDS011;23688;33.130;-117.188;2022-08-21T03:35:26;29.02;;;11.55;;
37847;SDS011;23688;33.130;-117.188;2022-08-21T03:37:54;20.33;;;10.00;;
37847;SDS011;23688;33.130;-117.188;2022-08-21T03:40:21;29.50;;;11.13;;
37847;SDS011;23688;33.130;-117.188;2022-08-21T03:42:49;33.10;;;11.70;;
37847;SDS011;23688;33.130;-117.188;2022-08-21T03:45:17;21.88;;;10.77;;
37847;SDS011;23688;33.130;-117.188;2022-08-21T03:47:52;25.48;;;10.10;;
37847;SDS011;23688;33.130;-117.188;2022-08-21T03:50:21;33.20;;;10.93;;
37847;SDS011;23688;33.130;-117.188;2022-08-21T03:52:49;28.30;;;11.37;;
37847;SDS011;23688;33.130;-117.188;2022-08-21T03:55:15;24.42;;;10.65;;
37847;SDS011;23688;33.130;-117.188;2022-08-21T03:57:42;32.15;;;10.25;;
37847;SDS011;23688;33.130;-117.188;2022-08-21T04:00:09;24.85;;;10.73;;
37847;SDS011;23688;33.130;-117.188;2022-08-21T04:02:37;23.90;;;11.25;;
37847;SDS011;23688;33.130;-117.188;2022-08-21T04:05:05;31.42;;;10.73;;
37847;SDS011;23688;33.130;-117.188;2022-08-21T04:07:34;27.50;;;11.52;;
37847;SDS011;23688;33.130;-117.188;2022-08-21T04:10:01;30.20;;;11.10;;
37847;SDS011;23688;33.130;-117.188;2022-08-21T04:14:55;24.42;;;10.93;;
37847;SDS011;23688;33.130;-117.188;2022-08-21T04:17:22;28.98;;;10.57;;
37847;SDS011;23688;33.130;-117.188;2022-08-21T04:19:48;26.38;;;10.65;;
37847;SDS011;23688;33.130;-117.188;2022-08-21T04:22:15;21.63;;;11.10;;
37847;SDS011;23688;33.130;-117.188;2022-08-21T04:24:42;26.73;;;11.45;;
37847;SDS011;23688;33.130;-117.188;2022-08-21T04:27:08;27.80;;;11.23;;
37847;SDS011;23688;33.130;-117.188;2022-08-21T04:29:34;23.45;;;11.10;;
37847;SDS011;23688;33.130;-117.188;2022-08-21T04:32:01;25.70;;;10.82;;
37847;SDS011;23688;33.130;-117.188;2022-08-21T04:34:28;31.15;;;11.65;;
37847;SDS011;23688;33.130;-117.188;2022-08-21T04:36:54;24.67;;;10.57;;
37847;SDS011;23688;33.130;-117.188;2022-08-21T04:39:22;37.58;;;11.85;;
37847;SDS011;23688;33.130;-117.188;2022-08-21T04:41:48;29.77;;;12.27;;
37847;SDS011;23688;33.130;-117.188;2022-08-21T04:44:17;28.00;;;12.15;;
37847;SDS011;23688;33.130;-117.188;2022-08-21T04:46:44;30.38;;;11.50;;
37847;SDS011;23688;33.130;-117.188;2022-08-21T04:49:11;25.92;;;12.02;;
37847;SDS011;23688;33.130;-117.188;2022-08-21T04:51:37;24.50;;;10.88;;
37847;SDS011;23688;33.130;-117.188;2022-08-21T04:54:09;25.88;;;11.05;;
37847;SDS011;23688;33.130;-117.188;2022-08-21T04:56:48;27.50;;;11.95;;
37847;SDS011;23688;33.130;-117.188;2022-08-21T04:59:17;22.30;;;11.43;;
37847;SDS011;23688;33.130;-117.188;2022-08-21T05:01:48;34.58;;;11.45;;
37847;SDS011;23688;33.130;-117.188;2022-08-21T05:04:16;24.33;;;11.47;;
37847;SDS011;23688;33.130;-117.188;2022-08-21T05:06:47;28.15;;;11.02;;
37847;SDS011;23688;33.130;-117.188;2022-08-21T05:09:15;29.20;;;11.32;;
37847;SDS011;23688;33.130;-117.188;2022-08-21T05:11:43;30.08;;;12.40;;
37847;SDS011;23688;33.130;-117.188;2022-08-21T05:14:10;31.13;;;11.65;;
37847;SDS011;23688;33.130;-117.188;2022-08-21T05:16:38;28.55;;;10.57;;
37847;SDS011;23688;33.130;-117.188;2022-08-21T05:19:07;23.77;;;10.45;;
37847;SDS011;23688;33.130;-117.188;2022-08-21T05:21:34;24.77;;;11.65;;
37847;SDS011;23688;33.130;-117.188;2022-08-21T05:24:02;28.15;;;11.82;;
37847;SDS011;23688;33.130;-117.188;2022-08-21T05:26:31;26.35;;;11.65;;
37847;SDS011;23688;33.130;-117.188;2022-08-21T05:29:00;29.50;;;11.50;;
37847;SDS011;23688;33.130;-117.188;2022-08-21T05:31:26;25.27;;;12.43;;
37847;SDS011;23688;33.130;-117.188;2022-08-21T05:33:52;19.52;;;11.07;;
37847;SDS011;23688;33.130;-117.188;2022-08-21T05:36:21;32.20;;;10.98;;
37847;SDS011;23688;33.130;-117.188;2022-08-21T05:38:48;21.92;;;11.38;;
37847;SDS011;23688;33.130;-117.188;2022-08-21T05:41:15;37.33;;;11.65;;
37847;SDS011;23688;33.130;-117.188;2022-08-21T05:43:41;27.98;;;12.05;;
37847;SDS011;23688;33.130;-117.188;2022-08-21T05:46:08;35.28;;;11.57;;
37847;SDS011;23688;33.130;-117.188;2022-08-21T05:48:35;26.75;;;12.15;;
37847;SDS011;23688;33.130;-117.188;2022-08-21T05:51:05;26.45;;;11.82;;
37847;SDS011;23688;33.130;-117.188;2022-08-21T05:53:35;28.50;;;12.38;;
37847;SDS011;23688;33.130;-117.188;2022-08-21T05:56:02;26.90;;;11.07;;
37847;SDS011;23688;33.130;-117.188;2022-08-21T05:58:31;25.52;;;10.30;;
37847;SDS011;23688;33.130;-117.188;2022-08-21T06:01:01;23.88;;;10.70;;
37847;SDS011;23688;33.130;-117.188;2022-08-21T06:03:30;23.73;;;11.98;;
37847;SDS011;23688;33.130;-117.188;2022-08-21T06:05:59;25.75;;;11.32;;
37847;SDS011;23688;33.130;-117.188;2022-08-21T06:08:26;22.35;;;11.15;;
37847;SDS011;23688;33.130;-117.188;2022-08-21T06:10:54;32.80;;;13.00;;
37847;SDS011;23688;33.130;-117.188;2022-08-21T06:13:22;29.13;;;12.80;;
37847;SDS011;23688;33.130;-117.188;2022-08-21T06:16:00;33.53;;;13.85;;
37847;SDS011;23688;33.130;-117.188;2022-08-21T06:18:32;25.63;;;11.52;;
37847;SDS011;23688;33.130;-117.188;2022-08-21T06:20:59;35.47;;;11.73;;
37847;SDS011;23688;33.130;-117.188;2022-08-21T06:23:25;38.47;;;13.60;;
37847;SDS011;23688;33.130;-117.188;2022-08-21T06:25:52;26.30;;;12.90;;
37847;SDS011;23688;33.130;-117.188;2022-08-21T06:28:18;30.33;;;12.90;;
37847;SDS011;23688;33.130;-117.188;2022-08-21T06:30:45;23.73;;;11.68;;
37847;SDS011;23688;33.130;-117.188;2022-08-21T06:33:11;27.90;;;10.98;;
37847;SDS011;23688;33.130;-117.188;2022-08-21T06:35:37;25.88;;;10.80;;
37847;SDS011;23688;33.130;-117.188;2022-08-21T06:38:03;32.00;;;10.93;;
37847;SDS011;23688;33.130;-117.188;2022-08-21T06:40:30;28.83;;;11.20;;
37847;SDS011;23688;33.130;-117.188;2022-08-21T06:42:57;26.35;;;11.70;;
37847;SDS011;23688;33.130;-117.188;2022-08-21T06:45:30;19.10;;;10.73;;
37847;SDS011;23688;33.130;-117.188;2022-08-21T06:47:56;24.73;;;11.80;;
37847;SDS011;23688;33.130;-117.188;2022-08-21T06:50:23;26.55;;;10.57;;
37847;SDS011;23688;33.130;-117.188;2022-08-21T06:52:49;31.73;;;12.20;;
37847;SDS011;23688;33.130;-117.188;2022-08-21T06:55:23;28.77;;;13.52;;
37847;SDS011;23688;33.130;-117.188;2022-08-21T06:57:49;34.20;;;14.18;;
37847;SDS011;23688;33.130;-117.188;2022-08-21T07:00:16;28.75;;;12.13;;
37847;SDS011;23688;33.130;-117.188;2022-08-21T07:02:42;27.58;;;12.52;;
37847;SDS011;23688;33.130;-117.188;2022-08-21T07:05:08;33.40;;;14.18;;
37847;SDS011;23688;33.130;-117.188;2022-08-21T07:07:35;25.08;;;12.70;;
37847;SDS011;23688;33.130;-117.188;2022-08-21T07:10:01;24.80;;;11.65;;
37847;SDS011;23688;33.130;-117.188;2022-08-21T07:12:27;30.13;;;15.27;;
37847;SDS011;23688;33.130;-117.188;2022-08-21T07:14:54;24.98;;;15.52;;
37847;SDS011;23688;33.130;-117.188;2022-08-21T07:17:20;35.65;;;20.60;;
37847;SDS011;23688;33.130;-117.188;2022-08-21T07:19:47;43.50;;;23.88;;
37847;SDS011;23688;33.130;-117.188;2022-08-21T07:22:13;36.35;;;15.77;;
37847;SDS011;23688;33.130;-117.188;2022-08-21T07:24:42;31.77;;;14.90;;
37847;SDS011;23688;33.130;-117.188;2022-08-21T07:27:08;34.47;;;16.20;;
37847;SDS011;23688;33.130;-117.188;2022-08-21T07:29:35;26.83;;;13.93;;
37847;SDS011;23688;33.130;-117.188;2022-08-21T07:32:01;27.50;;;11.50;;
37847;SDS011;23688;33.130;-117.188;2022-08-21T07:34:28;25.23;;;11.80;;
37847;SDS011;23688;33.130;-117.188;2022-08-21T07:36:54;32.40;;;13.68;;
37847;SDS011;23688;33.130;-117.188;2022-08-21T07:39:20;29.45;;;12.82;;
37847;SDS011;23688;33.130;-117.188;2022-08-21T07:41:47;31.85;;;12.15;;
37847;SDS011;23688;33.130;-117.188;2022-08-21T07:44:13;32.63;;;13.35;;
37847;SDS011;23688;33.130;-117.188;2022-08-21T07:46:39;28.95;;;11.82;;
37847;SDS011;23688;33.130;-117.188;2022-08-21T07:49:07;26.85;;;12.93;;
37847;SDS011;23688;33.130;-117.188;2022-08-21T07:51:34;35.83;;;13.55;;
37847;SDS011;23688;33.130;-117.188;2022-08-21T07:54:00;29.90;;;11.90;;
37847;SDS011;23688;33.130;-117.188;2022-08-21T07:56:27;39.05;;;13.27;;
37847;SDS011;23688;33.130;-117.188;2022-08-21T07:58:55;34.00;;;13.35;;
37847;SDS011;23688;33.130;-117.188;2022-08-21T08:01:23;37.58;;;13.68;;
37847;SDS011;23688;33.130;-117.188;2022-08-21T08:03:50;34.80;;;12.35;;
37847;SDS011;23688;33.130;-117.188;2022-08-21T08:06:17;40.35;;;14.82;;
37847;SDS011;23688;33.130;-117.188;2022-08-21T08:08:44;26.08;;;12.85;;
37847;SDS011;23688;33.130;-117.188;2022-08-21T08:11:11;40.67;;;14.63;;
37847;SDS011;23688;33.130;-117.188;2022-08-21T08:13:42;24.45;;;13.65;;
37847;SDS011;23688;33.130;-117.188;2022-08-21T08:16:13;29.25;;;12.90;;
37847;SDS011;23688;33.130;-117.188;2022-08-21T08:18:40;30.13;;;14.25;;
37847;SDS011;23688;33.130;-117.188;2022-08-21T08:21:07;32.15;;;14.32;;
37847;SDS011;23688;33.130;-117.188;2022-08-21T08:23:35;27.30;;;14.10;;
37847;SDS011;23688;33.130;-117.188;2022-08-21T08:26:01;29.00;;;13.20;;
37847;SDS011;23688;33.130;-117.188;2022-08-21T08:28:29;31.98;;;13.57;;
37847;SDS011;23688;33.130;-117.188;2022-08-21T08:30:57;29.88;;;13.73;;
37847;SDS011;23688;33.130;-117.188;2022-08-21T08:33:24;34.35;;;14.13;;
37847;SDS011;23688;33.130;-117.188;2022-08-21T08:35:51;35.50;;;15.48;;
37847;SDS011;23688;33.130;-117.188;2022-08-21T08:38:20;31.33;;;13.52;;
37847;SDS011;23688;33.130;-117.188;2022-08-21T08:43:28;28.92;;;13.63;;
37847;SDS011;23688;33.130;-117.188;2022-08-21T08:45:56;32.75;;;13.63;;
37847;SDS011;23688;33.130;-117.188;2022-08-21T08:51:15;34.05;;;13.95;;
37847;SDS011;23688;33.130;-117.188;2022-08-21T08:53:51;21.73;;;11.60;;
37847;SDS011;23688;33.130;-117.188;2022-08-21T08:56:30;28.45;;;13.30;;
37847;SDS011;23688;33.130;-117.188;2022-08-21T08:59:05;27.67;;;11.85;;
37847;SDS011;23688;33.130;-117.188;2022-08-21T09:01:37;32.78;;;12.90;;
37847;SDS011;23688;33.130;-117.188;2022-08-21T09:04:03;28.85;;;12.77;;
37847;SDS011;23688;33.130;-117.188;2022-08-21T09:11:37;34.90;;;13.65;;
37847;SDS011;23688;33.130;-117.188;2022-08-21T09:17:29;33.00;;;13.48;;
37847;SDS011;23688;33.130;-117.188;2022-08-21T09:25:27;36.95;;;15.43;;
37847;SDS011;23688;33.130;-117.188;2022-08-21T09:27:57;38.47;;;16.38;;
37847;SDS011;23688;33.130;-117.188;2022-08-21T09:30:31;28.17;;;14.63;;
37847;SDS011;23688;33.130;-117.188;2022-08-21T09:32:58;34.08;;;14.82;;
37847;SDS011;23688;33.130;-117.188;2022-08-21T09:35:24;34.58;;;13.43;;
37847;SDS011;23688;33.130;-117.188;2022-08-21T09:40:29;28.85;;;12.85;;
37847;SDS011;23688;33.130;-117.188;2022-08-21T09:43:06;34.47;;;13.45;;
37847;SDS011;23688;33.130;-117.188;2022-08-21T09:45:39;29.80;;;12.73;;
37847;SDS011;23688;33.130;-117.188;2022-08-21T09:48:29;31.33;;;12.65;;
37847;SDS011;23688;33.130;-117.188;2022-08-21T09:51:05;29.10;;;11.15;;
37847;SDS011;23688;33.130;-117.188;2022-08-21T09:53:34;26.77;;;12.98;;
37847;SDS011;23688;33.130;-117.188;2022-08-21T09:56:16;28.50;;;12.63;;
37847;SDS011;23688;33.130;-117.188;2022-08-21T09:59:16;29.48;;;13.02;;
37847;SDS011;23688;33.130;-117.188;2022-08-21T10:01:46;33.63;;;13.45;;
37847;SDS011;23688;33.130;-117.188;2022-08-21T10:04:15;33.80;;;14.13;;
37847;SDS011;23688;33.130;-117.188;2022-08-21T10:06:47;31.58;;;13.82;;
37847;SDS011;23688;33.130;-117.188;2022-08-21T10:09:15;42.88;;;14.63;;
37847;SDS011;23688;33.130;-117.188;2022-08-21T10:11:47;26.25;;;12.60;;
37847;SDS011;23688;33.130;-117.188;2022-08-21T10:20:04;32.67;;;11.95;;
37847;SDS011;23688;33.130;-117.188;2022-08-21T10:22:42;30.42;;;12.10;;
37847;SDS011;23688;33.130;-117.188;2022-08-21T10:25:23;28.23;;;12.23;;
37847;SDS011;23688;33.130;-117.188;2022-08-21T10:28:05;28.92;;;12.63;;
37847;SDS011;23688;33.130;-117.188;2022-08-21T10:30:52;25.17;;;11.90;;
37847;SDS011;23688;33.130;-117.188;2022-08-21T10:33:32;29.27;;;14.07;;
37847;SDS011;23688;33.130;-117.188;2022-08-21T10:36:14;29.67;;;12.77;;
37847;SDS011;23688;33.130;-117.188;2022-08-21T10:55:33;31.73;;;14.20;;
37847;SDS011;23688;33.130;-117.188;2022-08-21T10:58:22;30.70;;;12.93;;
37847;SDS011;23688;33.130;-117.188;2022-08-21T11:00:56;36.33;;;14.15;;
37847;SDS011;23688;33.130;-117.188;2022-08-21T11:03:35;29.92;;;14.05;;
37847;SDS011;23688;33.130;-117.188;2022-08-21T11:06:19;29.42;;;13.25;;
37847;SDS011;23688;33.130;-117.188;2022-08-21T11:08:56;22.70;;;12.45;;
37847;SDS011;23688;33.130;-117.188;2022-08-21T11:11:29;27.23;;;13.55;;
37847;SDS011;23688;33.130;-117.188;2022-08-21T11:14:25;35.00;;;16.13;;
37847;SDS011;23688;33.130;-117.188;2022-08-21T11:17:31;29.88;;;13.35;;
37847;SDS011;23688;33.130;-117.188;2022-08-21T11:23:21;25.98;;;12.48;;
37847;SDS011;23688;33.130;-117.188;2022-08-21T11:25:58;21.95;;;11.93;;
37847;SDS011;23688;33.130;-117.188;2022-08-21T11:28:33;26.88;;;13.98;;
37847;SDS011;23688;33.130;-117.188;2022-08-21T11:31:25;31.80;;;12.75;;
37847;SDS011;23688;33.130;-117.188;2022-08-21T11:39:25;31.35;;;12.52;;
37847;SDS011;23688;33.130;-117.188;2022-08-21T11:47:28;23.20;;;12.50;;
37847;SDS011;23688;33.130;-117.188;2022-08-21T11:50:15;26.13;;;12.82;;
37847;SDS011;23688;33.130;-117.188;2022-08-21T11:58:28;28.48;;;12.50;;
37847;SDS011;23688;33.130;-117.188;2022-08-21T12:01:07;25.83;;;14.63;;
37847;SDS011;23688;33.130;-117.188;2022-08-21T12:03:58;25.15;;;14.20;;
37847;SDS011;23688;33.130;-117.188;2022-08-21T12:06:31;32.92;;;14.75;;
37847;SDS011;23688;33.130;-117.188;2022-08-21T12:09:05;27.20;;;15.20;;
37847;SDS011;23688;33.130;-117.188;2022-08-21T12:11:45;24.55;;;14.30;;
37847;SDS011;23688;33.130;-117.188;2022-08-21T12:14:17;31.38;;;16.05;;
37847;SDS011;23688;33.130;-117.188;2022-08-21T12:16:45;28.25;;;15.30;;
37847;SDS011;23688;33.130;-117.188;2022-08-21T12:21:49;33.58;;;15.70;;
37847;SDS011;23688;33.130;-117.188;2022-08-21T12:24:19;28.02;;;14.73;;
37847;SDS011;23688;33.130;-117.188;2022-08-21T12:26:58;27.83;;;14.88;;
37847;SDS011;23688;33.130;-117.188;2022-08-21T12:29:38;29.48;;;14.38;;
37847;SDS011;23688;33.130;-117.188;2022-08-21T12:34:44;27.27;;;15.20;;
37847;SDS011;23688;33.130;-117.188;2022-08-21T12:37:28;28.75;;;14.65;;
37847;SDS011;23688;33.130;-117.188;2022-08-21T12:40:17;34.03;;;15.65;;
37847;SDS011;23688;33.130;-117.188;2022-08-21T12:42:55;34.22;;;16.42;;
37847;SDS011;23688;33.130;-117.188;2022-08-21T12:45:32;38.40;;;16.60;;
37847;SDS011;23688;33.130;-117.188;2022-08-21T12:48:47;29.73;;;15.63;;
37847;SDS011;23688;33.130;-117.188;2022-08-21T12:51:26;38.88;;;15.77;;
37847;SDS011;23688;33.130;-117.188;2022-08-21T12:53:59;29.30;;;14.43;;
37847;SDS011;23688;33.130;-117.188;2022-08-21T12:56:26;32.78;;;14.35;;
37847;SDS011;23688;33.130;-117.188;2022-08-21T12:59:05;27.58;;;14.20;;
37847;SDS011;23688;33.130;-117.188;2022-08-21T13:01:36;25.02;;;13.50;;
37847;SDS011;23688;33.130;-117.188;2022-08-21T13:04:51;22.27;;;14.13;;
37847;SDS011;23688;33.130;-117.188;2022-08-21T13:07:07;24.70;;;14.43;;
37847;SDS011;23688;33.130;-117.188;2022-08-21T13:09:44;25.13;;;14.38;;
37847;SDS011;23688;33.130;-117.188;2022-08-21T13:12:17;29.90;;;15.00;;
37847;SDS011;23688;33.130;-117.188;2022-08-21T13:14:47;34.35;;;14.15;;
37847;SDS011;23688;33.130;-117.188;2022-08-21T13:17:19;35.88;;;15.50;;
37847;SDS011;23688;33.130;-117.188;2022-08-21T13:19:54;29.83;;;13.65;;
37847;SDS011;23688;33.130;-117.188;2022-08-21T13:22:31;30.80;;;14.20;;
37847;SDS011;23688;33.130;-117.188;2022-08-21T13:25:02;27.92;;;14.43;;
37847;SDS011;23688;33.130;-117.188;2022-08-21T13:27:34;27.60;;;13.90;;
37847;SDS011;23688;33.130;-117.188;2022-08-21T13:30:07;28.52;;;14.00;;
37847;SDS011;23688;33.130;-117.188;2022-08-21T13:32:41;32.28;;;13.65;;
37847;SDS011;23688;33.130;-117.188;2022-08-21T13:35:14;25.80;;;12.80;;
37847;SDS011;23688;33.130;-117.188;2022-08-21T13:37:47;26.75;;;13.43;;
37847;SDS011;23688;33.130;-117.188;2022-08-21T13:40:19;26.20;;;14.57;;
37847;SDS011;23688;33.130;-117.188;2022-08-21T13:42:50;26.35;;;13.52;;
37847;SDS011;23688;33.130;-117.188;2022-08-21T13:45:26;34.92;;;14.00;;
37847;SDS011;23688;33.130;-117.188;2022-08-21T13:47:56;31.08;;;15.07;;
37847;SDS011;23688;33.130;-117.188;2022-08-21T13:50:25;31.45;;;15.07;;
37847;SDS011;23688;33.130;-117.188;2022-08-21T13:52:57;31.23;;;14.40;;
37847;SDS011;23688;33.130;-117.188;2022-08-21T13:55:34;28.02;;;13.77;;
37847;SDS011;23688;33.130;-117.188;2022-08-21T13:58:05;27.33;;;14.10;;
37847;SDS011;23688;33.130;-117.188;2022-08-21T14:00:33;26.58;;;13.55;;
37847;SDS011;23688;33.130;-117.188;2022-08-21T14:03:09;31.85;;;14.75;;
37847;SDS011;23688;33.130;-117.188;2022-08-21T14:05:37;32.65;;;14.57;;
37847;SDS011;23688;33.130;-117.188;2022-08-21T14:08:14;31.58;;;14.80;;
37847;SDS011;23688;33.130;-117.188;2022-08-21T14:10:49;28.85;;;13.32;;
37847;SDS011;23688;33.130;-117.188;2022-08-21T14:16:15;27.17;;;13.77;;
37847;SDS011;23688;33.130;-117.188;2022-08-21T14:18:50;34.17;;;14.65;;
37847;SDS011;23688;33.130;-117.188;2022-08-21T14:21:38;33.80;;;14.35;;
37847;SDS011;23688;33.130;-117.188;2022-08-21T14:26:52;25.67;;;14.05;;
37847;SDS011;23688;33.130;-117.188;2022-08-21T14:29:38;33.60;;;13.13;;
37847;SDS011;23688;33.130;-117.188;2022-08-21T14:32:12;32.42;;;14.80;;
37847;SDS011;23688;33.130;-117.188;2022-08-21T14:34:48;26.58;;;13.77;;
37847;SDS011;23688;33.130;-117.188;2022-08-21T14:37:16;29.73;;;15.43;;
37847;SDS011;23688;33.130;-117.188;2022-08-21T14:39:42;26.55;;;14.85;;
37847;SDS011;23688;33.130;-117.188;2022-08-21T14:42:10;32.25;;;15.02;;
37847;SDS011;23688;33.130;-117.188;2022-08-21T14:44:36;27.17;;;14.32;;
37847;SDS011;23688;33.130;-117.188;2022-08-21T14:47:03;33.88;;;14.45;;
37847;SDS011;23688;33.130;-117.188;2022-08-21T14:49:29;37.55;;;14.40;;
37847;SDS011;23688;33.130;-117.188;2022-08-21T14:51:56;25.40;;;14.80;;
37847;SDS011;23688;33.130;-117.188;2022-08-21T14:54:23;31.15;;;14.25;;
37847;SDS011;23688;33.130;-117.188;2022-08-21T14:56:50;25.73;;;14.63;;
37847;SDS011;23688;33.130;-117.188;2022-08-21T14:59:17;29.58;;;12.73;;
37847;SDS011;23688;33.130;-117.188;2022-08-21T15:01:45;36.13;;;14.30;;
37847;SDS011;23688;33.130;-117.188;2022-08-21T15:04:11;27.52;;;13.65;;
37847;SDS011;23688;33.130;-117.188;2022-08-21T15:06:38;26.33;;;13.40;;
37847;SDS011;23688;33.130;-117.188;2022-08-21T15:09:04;28.63;;;14.57;;
37847;SDS011;23688;33.130;-117.188;2022-08-21T15:11:31;33.15;;;14.20;;
37847;SDS011;23688;33.130;-117.188;2022-08-21T15:13:59;27.50;;;14.20;;
37847;SDS011;23688;33.130;-117.188;2022-08-21T15:16:28;29.30;;;14.10;;
37847;SDS011;23688;33.130;-117.188;2022-08-21T15:18:58;31.63;;;14.45;;
37847;SDS011;23688;33.130;-117.188;2022-08-21T15:21:24;33.05;;;14.10;;
37847;SDS011;23688;33.130;-117.188;2022-08-21T15:23:50;31.42;;;15.05;;
37847;SDS011;23688;33.130;-117.188;2022-08-21T15:26:18;30.38;;;14.93;;